createdAt,value
2023-04-18T00:00:36.926Z,100.00
2023-04-18T00:03:05.462Z,100.00
2023-04-18T00:05:32.493Z,100.00
2023-04-18T00:07:59.372Z,100.00
2023-04-18T00:10:26.357Z,100.00
2023-04-18T00:12:53.241Z,100.00
2023-04-18T00:15:20.247Z,100.00
2023-04-18T00:17:48.334Z,100.00
2023-04-18T00:20:16.697Z,100.00
2023-04-18T00:22:45.185Z,100.00
2023-04-18T00:25:12.664Z,100.00
2023-04-18T00:27:39.793Z,100.00
2023-04-18T00:30:08.270Z,100.00
2023-04-18T00:32:35.221Z,100.00
2023-04-18T00:35:02.123Z,100.00
2023-04-18T00:37:30.665Z,100.00
2023-04-18T00:39:57.552Z,100.00
2023-04-18T00:42:28.934Z,100.00
2023-04-18T00:44:56.040Z,100.00
2023-04-18T00:47:22.985Z,100.00
2023-04-18T00:49:50.075Z,100.00
2023-04-18T00:52:18.602Z,100.00
2023-04-18T00:54:47.519Z,100.00
2023-04-18T00:57:14.964Z,100.00
2023-04-18T00:59:42.724Z,100.00
2023-04-18T01:02:09.672Z,100.00
2023-04-18T01:04:37.372Z,100.00
2023-04-18T01:07:04.725Z,100.00
2023-04-18T01:09:31.800Z,100.00
2023-04-18T01:12:00.121Z,100.00
2023-04-18T01:14:27.107Z,100.00
2023-04-18T01:16:54.126Z,100.00
2023-04-18T01:19:21.530Z,100.00
2023-04-18T01:21:48.432Z,100.00
2023-04-18T01:24:17.845Z,100.00
2023-04-18T01:26:47.746Z,100.00
2023-04-18T01:29:15.300Z,100.00
2023-04-18T01:31:42.325Z,100.00
2023-04-18T01:34:09.456Z,100.00
2023-04-18T01:36:37.650Z,100.00
2023-04-18T01:39:04.605Z,100.00
2023-04-18T01:41:33.164Z,100.00
2023-04-18T01:44:00.572Z,100.00
2023-04-18T01:46:27.633Z,100.00
2023-04-18T01:48:54.905Z,100.00
2023-04-18T01:51:22.021Z,100.00
2023-04-18T01:53:48.959Z,100.00
2023-04-18T01:56:15.983Z,100.00
2023-04-18T01:58:44.358Z,100.00
2023-04-18T02:01:11.327Z,100.00
2023-04-18T02:03:38.427Z,100.00
2023-04-18T02:06:06.556Z,100.00
2023-04-18T02:08:35.894Z,100.00
2023-04-18T02:11:03.065Z,100.00
2023-04-18T02:13:29.978Z,100.00
2023-04-18T02:15:58.330Z,100.00
2023-04-18T02:18:25.902Z,100.00
2023-04-18T02:20:52.863Z,100.00
2023-04-18T02:23:19.898Z,100.00
2023-04-18T02:25:46.828Z,100.00
2023-04-18T02:28:13.715Z,100.00
2023-04-18T02:30:40.707Z,100.00
2023-04-18T02:33:09.042Z,100.00
2023-04-18T02:35:37.579Z,100.00
2023-04-18T02:38:04.676Z,100.00
2023-04-18T02:40:31.531Z,100.00
2023-04-18T02:42:58.502Z,100.00
2023-04-18T02:45:25.380Z,100.00
2023-04-18T02:47:55.896Z,100.00
2023-04-18T02:50:25.348Z,100.00
2023-04-18T02:52:52.352Z,100.00
2023-04-18T02:55:19.420Z,100.00
2023-04-18T02:57:46.382Z,100.00
2023-04-18T03:00:14.332Z,100.00
2023-04-18T03:02:41.377Z,100.00
2023-04-18T03:05:08.862Z,100.00
2023-04-18T03:07:37.267Z,100.00
2023-04-18T03:10:04.741Z,100.00
2023-04-18T03:12:31.726Z,100.00
2023-04-18T03:14:58.608Z,100.00
2023-04-18T03:17:25.641Z,100.00
2023-04-18T03:19:52.632Z,100.00
2023-04-18T03:22:19.701Z,100.00
2023-04-18T03:24:47.998Z,100.00
2023-04-18T03:27:14.879Z,100.00
2023-04-18T03:29:41.808Z,100.00
2023-04-18T03:32:08.682Z,100.00
2023-04-18T03:34:35.614Z,100.00
2023-04-18T03:37:02.712Z,100.00
2023-04-18T03:39:29.622Z,100.00
2023-04-18T03:41:57.984Z,100.00
2023-04-18T03:44:24.961Z,100.00
2023-04-18T03:46:51.888Z,100.00
2023-04-18T03:49:18.791Z,100.00
2023-04-18T03:51:47.973Z,100.00
2023-04-18T03:54:15.538Z,100.00
2023-04-18T03:56:42.927Z,100.00
2023-04-18T03:59:11.718Z,100.00
2023-04-18T04:01:38.662Z,100.00
2023-04-18T04:04:06.140Z,100.00
2023-04-18T04:06:33.193Z,100.00
2023-04-18T04:09:00.187Z,100.00
2023-04-18T04:11:27.196Z,100.00
2023-04-18T04:13:54.040Z,100.00
2023-04-18T04:16:22.371Z,100.00
2023-04-18T04:18:49.498Z,100.00
2023-04-18T04:21:16.471Z,100.00
2023-04-18T04:23:43.584Z,100.00
2023-04-18T04:26:10.782Z,100.00
2023-04-18T04:28:39.000Z,100.00
2023-04-18T04:31:07.040Z,100.00
2023-04-18T04:33:35.971Z,100.00
2023-04-18T04:36:02.880Z,100.00
2023-04-18T04:38:31.345Z,100.00
2023-04-18T04:41:00.368Z,100.00
2023-04-18T04:43:28.837Z,100.00
2023-04-18T04:45:57.751Z,100.00
2023-04-18T04:48:25.062Z,100.00
2023-04-18T04:50:54.902Z,100.00
2023-04-18T04:53:23.017Z,100.00
2023-04-18T04:55:51.001Z,100.00
2023-04-18T04:58:18.025Z,100.00
2023-04-18T05:00:46.031Z,100.00
2023-04-18T05:03:13.057Z,100.00
2023-04-18T05:05:40.462Z,100.00
2023-04-18T05:08:09.066Z,100.00
2023-04-18T05:10:39.028Z,100.00
2023-04-18T05:13:05.931Z,100.00
2023-04-18T05:15:32.873Z,100.00
2023-04-18T05:18:01.227Z,100.00
2023-04-18T05:20:31.108Z,100.00
2023-04-18T05:22:58.198Z,100.00
2023-04-18T05:25:34.249Z,100.00
2023-04-18T05:28:02.525Z,100.00
2023-04-18T05:30:29.536Z,100.00
2023-04-18T05:32:56.533Z,100.00
2023-04-18T05:35:23.830Z,100.00
2023-04-18T05:37:51.404Z,100.00
2023-04-18T05:40:20.211Z,100.00
2023-04-18T05:42:48.514Z,100.00
2023-04-18T05:45:16.088Z,100.00
2023-04-18T05:47:43.047Z,100.00
2023-04-18T05:50:10.309Z,100.00
2023-04-18T05:52:38.993Z,100.00
2023-04-18T05:55:06.683Z,100.00
2023-04-18T05:57:33.651Z,100.00
2023-04-18T06:00:02.131Z,100.00
2023-04-18T06:02:29.411Z,100.00
2023-04-18T06:04:56.873Z,100.00
2023-04-18T06:07:25.608Z,100.00
2023-04-18T06:09:54.042Z,97.75
2023-04-18T06:12:20.943Z,96.27
2023-04-18T06:14:47.903Z,100.00
2023-04-18T06:17:16.431Z,99.80
2023-04-18T06:19:43.334Z,98.05
2023-04-18T06:22:10.318Z,94.44
2023-04-18T06:24:37.553Z,90.09
2023-04-18T06:27:05.431Z,82.98
2023-04-18T06:29:33.345Z,82.98
2023-04-18T06:32:00.459Z,86.60
2023-04-18T06:34:28.841Z,84.02
2023-04-18T06:36:55.999Z,86.65
2023-04-18T06:39:22.988Z,77.53
2023-04-18T06:41:49.877Z,84.32
2023-04-18T06:44:16.945Z,83.37
2023-04-18T06:46:43.943Z,73.75
2023-04-18T06:49:10.998Z,76.46
2023-04-18T06:51:39.295Z,77.23
2023-04-18T06:54:06.225Z,78.50
2023-04-18T06:56:36.263Z,78.26
2023-04-18T06:59:03.543Z,80.54
2023-04-18T07:01:33.303Z,82.92
2023-04-18T07:04:00.881Z,75.68
2023-04-18T07:06:27.947Z,72.52
2023-04-18T07:09:00.110Z,73.46
2023-04-18T07:11:27.202Z,78.40
2023-04-18T07:13:54.445Z,81.88
2023-04-18T07:16:21.661Z,82.43
2023-04-18T07:18:49.241Z,75.47
2023-04-18T07:21:16.118Z,74.43
2023-04-18T07:23:43.122Z,77.86
2023-04-18T07:26:13.495Z,79.59
2023-04-18T07:28:41.716Z,74.58
2023-04-18T07:31:11.534Z,71.44
2023-04-18T07:33:38.819Z,70.75
2023-04-18T07:36:06.217Z,72.03
2023-04-18T07:38:35.298Z,73.48
2023-04-18T07:41:03.366Z,75.23
2023-04-18T07:43:31.880Z,72.25
2023-04-18T07:46:02.376Z,73.58
2023-04-18T07:48:30.566Z,76.96
2023-04-18T07:50:57.572Z,77.75
2023-04-18T07:53:24.531Z,76.54
2023-04-18T07:55:51.558Z,72.13
2023-04-18T07:58:18.522Z,66.44
2023-04-18T08:00:46.869Z,69.88
2023-04-18T08:03:14.086Z,74.50
2023-04-18T08:05:43.079Z,67.62
2023-04-18T08:08:11.901Z,73.74
2023-04-18T08:10:39.187Z,73.60
2023-04-18T08:13:06.903Z,67.62
2023-04-18T08:15:33.838Z,72.99
2023-04-18T08:18:02.217Z,73.88
2023-04-18T08:20:29.248Z,74.29
2023-04-18T08:25:25.978Z,72.83
2023-04-18T08:27:52.862Z,68.45
2023-04-18T08:30:20.068Z,63.16
2023-04-18T08:32:47.183Z,73.04
2023-04-18T08:35:20.944Z,66.97
2023-04-18T08:37:48.004Z,61.31
2023-04-18T08:43:18.776Z,66.77
2023-04-18T08:45:45.932Z,67.77
2023-04-18T08:48:13.818Z,63.73
2023-04-18T08:50:42.497Z,70.95
2023-04-18T08:53:09.509Z,72.90
2023-04-18T08:55:36.820Z,69.27
2023-04-18T08:58:06.778Z,71.06
2023-04-18T09:00:34.225Z,80.03
2023-04-18T09:03:02.922Z,77.58
2023-04-18T09:05:30.276Z,75.45
2023-04-18T09:07:58.583Z,69.85
2023-04-18T09:10:28.883Z,76.40
2023-04-18T09:12:57.058Z,79.85
2023-04-18T09:15:27.479Z,77.69
2023-04-18T09:17:58.202Z,78.89
2023-04-18T09:20:35.672Z,72.12
2023-04-18T09:23:05.738Z,71.33
2023-04-18T09:25:43.283Z,72.86
2023-04-18T09:28:23.524Z,79.42
2023-04-18T09:30:54.398Z,75.87
2023-04-18T09:33:35.952Z,81.09
2023-04-18T09:36:27.856Z,79.69
2023-04-18T09:38:57.270Z,79.04
2023-04-18T09:41:24.507Z,82.32
2023-04-18T09:44:10.952Z,77.04
2023-04-18T09:46:40.519Z,81.79
2023-04-18T09:49:09.665Z,80.58
2023-04-18T09:51:39.969Z,82.30
2023-04-18T09:54:10.962Z,80.95
2023-04-18T09:56:43.974Z,79.96
2023-04-18T09:59:11.782Z,76.84
2023-04-18T10:01:49.458Z,76.17
2023-04-18T10:04:17.721Z,80.11
2023-04-18T10:06:46.957Z,79.07
2023-04-18T10:09:16.601Z,78.14
2023-04-18T10:11:44.732Z,77.58
2023-04-18T10:14:13.981Z,72.48
2023-04-18T10:16:43.076Z,75.34
2023-04-18T10:19:24.723Z,71.23
2023-04-18T10:21:55.951Z,73.85
2023-04-18T10:24:50.227Z,72.84
2023-04-18T10:27:19.705Z,69.60
2023-04-18T10:29:48.550Z,76.29
2023-04-18T10:32:16.093Z,73.21
2023-04-18T10:34:43.080Z,77.23
2023-04-18T10:37:11.316Z,76.51
2023-04-18T10:39:55.922Z,74.36
2023-04-18T10:42:55.895Z,77.29
2023-04-18T10:45:24.481Z,79.04
2023-04-18T10:48:11.456Z,79.85
2023-04-18T10:51:11.903Z,81.69
2023-04-18T10:53:38.989Z,78.90
2023-04-18T10:56:10.325Z,75.80
2023-04-18T10:58:37.384Z,73.97
2023-04-18T11:01:06.332Z,78.59
2023-04-18T11:03:34.036Z,77.06
2023-04-18T11:06:02.873Z,78.72
2023-04-18T11:08:30.229Z,75.31
2023-04-18T11:10:57.699Z,73.95
2023-04-18T11:13:26.290Z,73.43
2023-04-18T11:15:53.143Z,73.37
2023-04-18T11:18:20.000Z,71.06
2023-04-18T11:20:49.320Z,71.50
2023-04-18T11:23:18.208Z,72.58
2023-04-18T11:25:45.443Z,73.07
2023-04-18T11:28:19.448Z,74.71
2023-04-18T11:30:48.396Z,69.30
2023-04-18T11:33:15.973Z,72.45
2023-04-18T11:35:44.602Z,72.69
2023-04-18T11:38:13.976Z,75.48
2023-04-18T11:40:47.987Z,74.10
2023-04-18T11:43:21.103Z,74.98
2023-04-18T11:45:53.543Z,70.03
2023-04-18T11:48:20.556Z,72.59
2023-04-18T11:50:47.495Z,71.50
2023-04-18T11:53:14.709Z,76.75
2023-04-18T11:55:41.663Z,77.89
2023-04-18T11:58:14.885Z,76.27
2023-04-18T12:00:42.205Z,73.29
2023-04-18T12:03:18.827Z,72.81
2023-04-18T12:05:46.071Z,72.79
2023-04-18T12:08:17.278Z,74.53
2023-04-18T12:10:47.378Z,73.71
2023-04-18T12:13:14.566Z,68.64
2023-04-18T12:15:44.585Z,71.94
2023-04-18T12:18:15.316Z,77.66
2023-04-18T12:20:52.355Z,70.80
2023-04-18T12:23:30.518Z,71.50
2023-04-18T12:26:01.644Z,72.70
2023-04-18T12:28:28.710Z,69.67
2023-04-18T12:30:56.023Z,69.84
2023-04-18T12:33:24.369Z,65.20
2023-04-18T12:35:52.868Z,72.13
2023-04-18T12:38:21.672Z,72.65
2023-04-18T12:40:49.000Z,68.21
2023-04-18T12:43:16.629Z,70.21
2023-04-18T12:45:43.538Z,70.46
2023-04-18T12:48:10.473Z,71.93
2023-04-18T12:50:38.906Z,73.58
2023-04-18T12:53:06.273Z,68.28
2023-04-18T12:55:33.268Z,72.32
2023-04-18T12:58:00.796Z,65.61
2023-04-18T13:00:30.222Z,64.18
2023-04-18T13:02:58.027Z,64.02
2023-04-18T13:05:27.334Z,60.90
2023-04-18T13:08:08.575Z,58.83
2023-04-18T13:10:40.024Z,63.70
2023-04-18T13:13:06.884Z,61.99
2023-04-18T13:15:33.862Z,65.11
2023-04-18T13:18:05.102Z,65.25
2023-04-18T13:20:32.396Z,66.85
2023-04-18T13:23:01.900Z,67.84
2023-04-18T13:25:28.842Z,62.44
2023-04-18T13:27:57.509Z,65.75
2023-04-18T13:30:24.452Z,60.88
2023-04-18T13:32:55.292Z,65.09
2023-04-18T13:35:22.249Z,60.98
2023-04-18T13:37:49.235Z,66.42
2023-04-18T13:40:17.604Z,62.00
2023-04-18T13:42:44.886Z,63.00
2023-04-18T13:45:12.031Z,62.72
2023-04-18T13:47:39.494Z,59.27
2023-04-18T13:50:08.117Z,62.64
2023-04-18T13:52:35.362Z,59.36
2023-04-18T13:55:02.260Z,59.02
2023-04-18T13:57:32.355Z,60.87
2023-04-18T13:59:59.412Z,58.03
2023-04-18T14:02:26.716Z,58.48
2023-04-18T14:04:54.902Z,59.62
2023-04-18T14:07:22.329Z,66.24
2023-04-18T14:09:49.878Z,66.16
2023-04-18T14:12:17.795Z,66.86
2023-04-18T14:14:46.188Z,65.26
2023-04-18T14:17:13.098Z,63.63
2023-04-18T14:19:40.132Z,60.73
2023-04-18T14:22:08.178Z,61.87
2023-04-18T14:24:35.448Z,60.24
2023-04-18T14:27:02.573Z,57.82
2023-04-18T14:29:29.732Z,61.21
2023-04-18T14:31:58.108Z,60.12
2023-04-18T14:34:25.087Z,61.75
2023-04-18T14:36:52.092Z,61.03
2023-04-18T14:39:19.125Z,58.73
2023-04-18T14:41:46.373Z,59.12
2023-04-18T14:44:13.627Z,63.41
2023-04-18T14:46:41.954Z,63.49
2023-04-18T14:49:10.281Z,64.25
2023-04-18T14:51:37.285Z,62.46
2023-04-18T14:54:04.449Z,61.90
2023-04-18T14:56:31.394Z,62.07
2023-04-18T14:58:58.730Z,63.18
2023-04-18T15:01:26.325Z,65.73
2023-04-18T15:03:53.571Z,60.45
2023-04-18T15:06:23.231Z,60.88
2023-04-18T15:08:50.182Z,60.97
2023-04-18T15:11:17.065Z,61.86
2023-04-18T15:13:44.644Z,61.52
2023-04-18T15:16:11.537Z,60.73
2023-04-18T15:18:38.561Z,60.99
2023-04-18T15:21:08.888Z,63.12
2023-04-18T15:23:37.186Z,62.01
2023-04-18T15:26:04.274Z,62.94
2023-04-18T15:28:31.645Z,63.32
2023-04-18T15:30:58.915Z,63.63
2023-04-18T15:33:26.159Z,62.01
2023-04-18T15:35:54.885Z,61.93
2023-04-18T15:38:22.174Z,65.09
2023-04-18T15:40:51.193Z,66.73
2023-04-18T15:43:18.202Z,64.88
2023-04-18T15:45:45.231Z,67.15
2023-04-18T15:48:13.576Z,68.58
2023-04-18T15:50:42.194Z,64.50
2023-04-18T15:53:09.164Z,66.66
2023-04-18T15:55:36.234Z,70.82
2023-04-18T15:58:17.949Z,71.53
2023-04-18T16:00:46.329Z,72.05
2023-04-18T16:03:13.421Z,72.63
2023-04-18T16:05:40.403Z,69.36
2023-04-18T16:08:08.897Z,68.07
2023-04-18T16:10:35.811Z,69.06
2023-04-18T16:13:04.157Z,68.08
2023-04-18T16:15:31.783Z,67.78
2023-04-18T16:17:58.968Z,70.88
2023-04-18T16:20:27.148Z,69.89
2023-04-18T16:22:54.032Z,70.61
2023-04-18T16:25:20.906Z,73.50
2023-04-18T16:27:47.745Z,77.75
2023-04-18T16:30:16.173Z,74.57
2023-04-18T16:32:43.779Z,75.27
2023-04-18T16:35:11.178Z,73.26
2023-04-18T16:37:38.542Z,74.18
2023-04-18T16:40:07.929Z,69.90
2023-04-18T16:42:34.742Z,70.28
2023-04-18T16:45:02.336Z,70.31
2023-04-18T16:47:30.823Z,73.81
2023-04-18T16:49:57.741Z,75.49
2023-04-18T16:52:25.040Z,72.92
2023-04-18T16:54:55.061Z,74.84
2023-04-18T16:57:22.012Z,74.14
2023-04-18T16:59:48.850Z,76.05
2023-04-18T17:02:15.798Z,74.69
2023-04-18T17:04:44.072Z,72.48
2023-04-18T17:07:10.934Z,75.32
2023-04-18T17:09:37.754Z,75.63
2023-04-18T17:12:04.793Z,77.89
2023-04-18T17:14:31.686Z,80.53
2023-04-18T17:16:58.514Z,78.52
2023-04-18T17:19:26.290Z,78.10
2023-04-18T17:21:54.626Z,78.86
2023-04-18T17:24:22.568Z,78.46
2023-04-18T17:26:49.806Z,76.21
2023-04-18T17:29:17.124Z,75.58
2023-04-18T17:31:44.018Z,75.53
2023-04-18T17:34:10.967Z,77.06
2023-04-18T17:36:37.888Z,76.59
2023-04-18T17:39:06.671Z,77.33
2023-04-18T17:41:37.415Z,76.36
2023-04-18T17:44:05.719Z,79.06
2023-04-18T17:46:32.767Z,78.92
2023-04-18T17:48:59.751Z,78.41
2023-04-18T17:51:27.458Z,78.48
2023-04-18T17:53:55.044Z,78.71
2023-04-18T17:56:23.306Z,79.04
2023-04-18T17:58:50.154Z,79.05
2023-04-18T18:01:17.594Z,80.89
2023-04-18T18:03:45.107Z,80.53
2023-04-18T18:06:13.299Z,80.02
2023-04-18T18:08:40.758Z,80.88
2023-04-18T18:11:08.238Z,81.29
2023-04-18T18:13:36.995Z,84.70
2023-04-18T18:16:04.218Z,82.76
2023-04-18T18:18:31.490Z,82.41
2023-04-18T18:20:58.601Z,82.19
2023-04-18T18:23:25.525Z,84.42
2023-04-18T18:25:52.424Z,88.43
2023-04-18T18:28:19.341Z,88.38
2023-04-18T18:30:47.504Z,88.58
2023-04-18T18:33:14.484Z,86.67
2023-04-18T18:35:41.289Z,87.39
2023-04-18T18:38:08.105Z,86.18
2023-04-18T18:40:35.072Z,87.90
2023-04-18T18:43:01.928Z,90.67
2023-04-18T18:45:29.234Z,89.88
2023-04-18T18:47:57.461Z,91.01
2023-04-18T18:50:24.375Z,93.34
2023-04-18T18:52:51.267Z,92.43
2023-04-18T18:55:18.644Z,95.92
2023-04-18T18:57:45.535Z,93.96
2023-04-18T19:00:13.415Z,93.31
2023-04-18T19:02:40.572Z,96.63
2023-04-18T19:05:09.782Z,95.97
2023-04-18T19:07:36.609Z,95.26
2023-04-18T19:10:04.738Z,94.84
2023-04-18T19:12:31.572Z,94.58
2023-04-18T19:14:58.446Z,97.03
2023-04-18T19:17:25.718Z,94.93
2023-04-18T19:19:52.852Z,97.52
2023-04-18T19:22:21.058Z,96.76
2023-04-18T19:24:48.061Z,96.49
2023-04-18T19:27:14.920Z,96.13
2023-04-18T19:29:41.796Z,94.82
2023-04-18T19:32:08.883Z,94.63
2023-04-18T19:34:36.181Z,98.41
2023-04-18T19:37:03.711Z,98.86
2023-04-18T19:39:32.107Z,100.00
2023-04-18T19:41:58.957Z,100.00
2023-04-18T19:44:25.954Z,98.85
2023-04-18T19:46:52.818Z,99.09
2023-04-18T19:49:19.706Z,98.16
2023-04-18T19:51:46.656Z,100.00
2023-04-18T19:54:14.066Z,97.40
2023-04-18T19:56:42.701Z,96.28
2023-04-18T19:59:09.642Z,98.04
2023-04-18T20:01:36.555Z,100.00
2023-04-18T20:04:04.078Z,99.17
2023-04-18T20:06:31.098Z,99.77
2023-04-18T20:08:58.083Z,99.18
2023-04-18T20:11:24.957Z,98.38
2023-04-18T20:13:55.546Z,97.16
2023-04-18T20:16:23.645Z,98.28
2023-04-18T20:18:52.296Z,99.73
2023-04-18T20:21:20.378Z,100.00
2023-04-18T20:23:47.324Z,100.00
2023-04-18T20:26:14.127Z,99.90
2023-04-18T20:28:40.962Z,100.00
2023-04-18T20:31:10.877Z,100.00
2023-04-18T20:33:38.209Z,100.00
2023-04-18T20:36:06.556Z,100.00
2023-04-18T20:38:33.830Z,100.00
2023-04-18T20:41:00.890Z,100.00
2023-04-18T20:43:28.062Z,100.00
2023-04-18T20:45:57.677Z,100.00
2023-04-18T20:48:26.262Z,100.00
2023-04-18T20:50:53.179Z,100.00
2023-04-18T20:53:21.422Z,100.00
2023-04-18T20:55:48.465Z,100.00
2023-04-18T20:58:15.783Z,100.00
2023-04-18T21:00:43.792Z,100.00
2023-04-18T21:03:13.161Z,100.00
2023-04-18T21:05:42.921Z,99.44
2023-04-18T21:08:11.008Z,100.00
2023-04-18T21:10:38.032Z,100.00
2023-04-18T21:13:04.889Z,100.00
2023-04-18T21:15:31.738Z,100.00
2023-04-18T21:17:58.808Z,100.00
2023-04-18T21:20:25.906Z,100.00
2023-04-18T21:22:54.214Z,100.00
2023-04-18T21:25:21.397Z,100.00
2023-04-18T21:27:50.613Z,100.00
2023-04-18T21:30:17.753Z,100.00
2023-04-18T21:32:46.067Z,100.00
2023-04-18T21:35:13.101Z,100.00
2023-04-18T21:37:39.975Z,100.00
2023-04-18T21:40:09.845Z,100.00
2023-04-18T21:42:37.568Z,100.00
2023-04-18T21:45:06.140Z,100.00
2023-04-18T21:47:33.293Z,100.00
2023-04-18T21:50:00.317Z,100.00
2023-04-18T21:52:27.171Z,100.00
2023-04-18T21:54:54.051Z,100.00
2023-04-18T21:57:22.253Z,100.00
2023-04-18T21:59:49.092Z,100.00
2023-04-18T22:02:16.130Z,100.00
2023-04-18T22:04:44.241Z,100.00
2023-04-18T22:07:15.549Z,100.00
2023-04-18T22:09:43.485Z,100.00
2023-04-18T22:12:11.437Z,100.00
2023-04-18T22:14:40.409Z,100.00
2023-04-18T22:17:07.229Z,100.00
2023-04-18T22:19:35.654Z,100.00
2023-04-18T22:22:02.532Z,100.00
2023-04-18T22:24:29.357Z,100.00
2023-04-18T22:26:56.636Z,100.00
2023-04-18T22:29:23.426Z,100.00
2023-04-18T22:31:51.790Z,100.00
2023-04-18T22:34:18.669Z,100.00
2023-04-18T22:36:45.611Z,100.00
2023-04-18T22:39:12.523Z,100.00
2023-04-18T22:41:39.379Z,100.00
2023-04-18T22:44:07.140Z,100.00
2023-04-18T22:46:34.118Z,100.00
2023-04-18T22:49:02.448Z,100.00
2023-04-18T22:51:29.313Z,100.00
2023-04-18T22:53:56.274Z,100.00
2023-04-18T22:56:23.401Z,100.00
2023-04-18T22:58:50.256Z,100.00
2023-04-18T23:01:17.102Z,100.00
2023-04-18T23:03:44.384Z,100.00
2023-04-18T23:06:12.816Z,100.00
2023-04-18T23:08:39.639Z,100.00
2023-04-18T23:11:06.568Z,100.00
2023-04-18T23:13:33.364Z,100.00
2023-04-18T23:16:00.290Z,100.00
2023-04-18T23:18:29.414Z,100.00
2023-04-18T23:20:56.297Z,100.00
2023-04-18T23:23:24.523Z,100.00
2023-04-18T23:25:52.134Z,100.00
2023-04-18T23:28:19.057Z,100.00
2023-04-18T23:30:46.001Z,100.00
2023-04-18T23:33:13.341Z,100.00
2023-04-18T23:35:40.233Z,100.00
2023-04-18T23:38:07.071Z,100.00
2023-04-18T23:40:35.690Z,100.00
2023-04-18T23:43:02.507Z,100.00
2023-04-18T23:45:29.344Z,100.00
2023-04-18T23:47:56.349Z,100.00
2023-04-18T23:50:23.177Z,100.00
2023-04-18T23:52:50.099Z,100.00
2023-04-18T23:55:17.275Z,100.00
2023-04-18T23:57:45.612Z,100.00
